Time,TemperatureF,DewpointF,PressureIn,WindDirection,WindDirectionDegrees,WindSpeedMPH,WindSpeedGustMPH,Humidity,HourlyPrecipIn,Conditions,Clouds,dailyrainin,SolarRadiationWatts/m^2,SoftwareType,DateUTC
2013-04-05 00:00:00,40.8,15.3,29.96,SSW,209,0.0,3.0,35,0.00,,,0.00,0.00,VWS V14.01,2013-04-05 04:00:00,
2013-04-05 00:05:00,40.8,13.9,29.96,SW,219,1.5,1.5,33,0.00,,,0.00,0.00,VWS V14.01,2013-04-05 04:05:00,
2013-04-05 00:10:00,41.1,14.9,29.96,SW,216,0.0,3.0,34,0.00,,,0.00,0.00,VWS V14.01,2013-04-05 04:10:00,
2013-04-05 00:15:00,41.4,14.5,29.96,SSW,208,1.5,3.0,33,0.00,,,0.00,0.00,VWS V14.01,2013-04-05 04:15:00,
2013-04-05 00:20:00,41.5,14.6,29.96,SSW,195,0.0,1.5,33,0.00,,,0.00,0.00,VWS V14.01,2013-04-05 04:20:00,
2013-04-05 00:25:00,41.7,14.7,29.96,SSW,207,0.0,4.5,33,0.00,,,0.00,0.00,VWS V14.01,2013-04-05 04:25:00,
2013-04-05 00:30:00,41.8,14.1,29.96,SW,225,3.0,4.5,32,0.00,,,0.00,0.00,VWS V14.01,2013-04-05 04:30:00,
2013-04-05 00:35:00,42.0,14.3,29.96,SSW,200,0.0,6.0,32,0.00,,,0.00,0.00,VWS V14.01,2013-04-05 04:35:00,
2013-04-05 00:40:00,42.2,14.5,29.96,SW,219,1.5,6.0,32,0.00,,,0.00,0.00,VWS V14.01,2013-04-05 04:40:00,
2013-04-05 00:45:00,42.3,14.6,29.96,SW,220,0.0,6.0,32,0.00,,,0.00,0.00,VWS V14.01,2013-04-05 04:45:00,
2013-04-05 00:50:00,42.2,14.5,29.95,SW,217,0.0,1.5,32,0.00,,,0.00,0.00,VWS V14.01,2013-04-05 04:50:00,
2013-04-05 00:55:00,42.2,14.5,29.95,SW,222,0.0,1.5,32,0.00,,,0.00,0.00,VWS V14.01,2013-04-05 04:55:00,
2013-04-05 01:00:00,42.2,13.8,29.95,SSW,210,1.5,3.0,31,0.00,,,0.00,0.00,VWS V14.01,2013-04-05 05:00:00,
2013-04-05 01:05:00,42.2,14.5,29.95,SSW,200,0.0,3.0,32,0.00,,,0.00,0.00,VWS V14.01,2013-04-05 05:05:00,
2013-04-05 01:10:00,42.0,15.0,29.95,SSE,147,0.0,3.0,33,0.00,,,0.00,0.00,VWS V14.01,2013-04-05 05:10:00,
2013-04-05 01:15:00,41.9,14.2,29.95,South,189,1.5,6.0,32,0.00,,,0.00,0.00,VWS V14.01,2013-04-05 05:15:00,
2013-04-05 01:20:00,42.2,14.5,29.95,SW,218,1.5,3.0,32,0.00,,,0.00,0.00,VWS V14.01,2013-04-05 05:20:00,
2013-04-05 01:25:00,42.2,15.2,29.95,SSW,197,1.5,3.0,33,0.00,,,0.00,0.00,VWS V14.01,2013-04-05 05:25:00,
2013-04-05 01:30:00,42.2,14.5,29.95,South,181,0.0,3.0,32,0.00,,,0.00,0.00,VWS V14.01,2013-04-05 05:30:00,
2013-04-05 01:35:00,42.0,14.3,29.95,SSE,153,0.0,1.5,32,0.00,,,0.00,0.00,VWS V14.01,2013-04-05 05:35:00,
2013-04-05 01:40:00,41.8,14.8,29.95,SSE,160,0.0,1.5,33,0.00,,,0.00,0.00,VWS V14.01,2013-04-05 05:40:00,
2013-04-05 01:45:00,41.7,14.0,29.95,SW,232,0.0,3.0,32,0.00,,,0.00,0.00,VWS V14.01,2013-04-05 05:45:00,
2013-04-05 01:50:00,41.6,14.6,29.95,SW,223,1.5,1.5,33,0.00,,,0.00,0.00,VWS V14.01,2013-04-05 05:50:00,
2013-04-05 01:55:00,41.6,13.9,29.95,SSW,205,0.0,1.5,32,0.00,,,0.00,0.00,VWS V14.01,2013-04-05 05:55:00,
2013-04-05 02:00:00,41.6,14.6,29.95,South,189,1.5,4.5,33,0.00,,,0.00,0.00,VWS V14.01,2013-04-05 06:00:00,
2013-04-05 02:05:00,41.5,13.9,29.94,SW,222,0.0,1.5,32,0.00,,,0.00,0.00,VWS V14.01,2013-04-05 06:05:00,
2013-04-05 02:10:00,41.5,13.9,29.94,SSW,202,1.5,3.0,32,0.00,,,0.00,0.00,VWS V14.01,2013-04-05 06:10:00,
2013-04-05 02:15:00,41.5,14.6,29.94,SW,221,1.5,3.0,33,0.00,,,0.00,0.00,VWS V14.01,2013-04-05 06:15:00,
2013-04-05 02:20:00,41.5,13.9,29.94,SW,217,0.0,1.5,32,0.00,,,0.00,0.00,VWS V14.01,2013-04-05 06:20:00,
2013-04-05 02:25:00,41.5,13.9,29.94,SSW,199,0.0,1.5,32,0.00,,,0.00,0.00,VWS V14.01,2013-04-05 06:25:00,
2013-04-05 02:30:00,41.6,13.9,29.94,SSW,207,1.5,3.0,32,0.00,,,0.00,0.00,VWS V14.01,2013-04-05 06:30:00,
2013-04-05 02:35:00,41.7,14.7,29.93,SW,233,1.5,4.5,33,0.00,,,0.00,0.00,VWS V14.01,2013-04-05 06:35:00,
2013-04-05 02:40:00,41.6,13.9,29.93,SW,232,1.5,4.5,32,0.00,,,0.00,0.00,VWS V14.01,2013-04-05 06:40:00,
2013-04-05 02:45:00,41.8,14.1,29.93,SW,215,0.0,4.5,32,0.00,,,0.00,0.00,VWS V14.01,2013-04-05 06:45:00,
2013-04-05 02:50:00,42.0,14.3,29.94,SW,233,0.0,6.0,32,0.00,,,0.00,0.00,VWS V14.01,2013-04-05 06:50:00,
2013-04-05 02:55:00,41.8,14.8,29.93,WSW,249,1.5,6.0,33,0.00,,,0.00,0.00,VWS V14.01,2013-04-05 06:55:00,
2013-04-05 03:00:00,41.8,14.8,29.93,SW,234,1.5,6.0,33,0.00,,,0.00,0.00,VWS V14.01,2013-04-05 07:00:00,
2013-04-05 03:05:00,42.4,14.6,29.94,South,190,1.5,4.5,32,0.00,,,0.00,0.00,VWS V14.01,2013-04-05 07:05:00,
2013-04-05 03:10:00,42.7,14.9,29.93,SW,229,0.0,4.5,32,0.00,,,0.00,0.00,VWS V14.01,2013-04-05 07:10:00,
2013-04-05 03:15:00,42.8,15.0,29.93,WSW,245,1.5,4.5,32,0.00,,,0.00,0.00,VWS V14.01,2013-04-05 07:15:00,
2013-04-05 03:20:00,43.0,14.4,29.93,WSW,258,0.0,9.0,31,0.00,,,0.00,0.00,VWS V14.01,2013-04-05 07:20:00,
2013-04-05 03:25:00,43.0,15.2,29.93,West,261,1.5,9.0,32,0.00,,,0.00,0.00,VWS V14.01,2013-04-05 07:25:00,
2013-04-05 03:30:00,43.1,15.3,29.93,WSW,243,1.5,9.0,32,0.00,,,0.00,0.00,VWS V14.01,2013-04-05 07:30:00,
2013-04-05 03:35:00,43.1,15.3,29.93,WSW,244,1.5,4.5,32,0.00,,,0.00,0.00,VWS V14.01,2013-04-05 07:35:00,
2013-04-05 03:40:00,43.0,15.9,29.93,WSW,245,0.0,4.5,33,0.00,,,0.00,0.00,VWS V14.01,2013-04-05 07:40:00,
2013-04-05 03:45:00,42.9,15.8,29.94,SW,229,0.0,4.5,33,0.00,,,0.00,0.00,VWS V14.01,2013-04-05 07:45:00,
2013-04-05 03:50:00,42.8,15.7,29.93,WSW,246,1.5,3.0,33,0.00,,,0.00,0.00,VWS V14.01,2013-04-05 07:50:00,
2013-04-05 03:55:00,42.7,16.3,29.94,SW,214,1.5,4.5,34,0.00,,,0.00,0.00,VWS V14.01,2013-04-05 07:55:00,
2013-04-05 04:00:00,42.5,16.1,29.94,SW,214,0.0,4.5,34,0.00,,,0.00,0.00,VWS V14.01,2013-04-05 08:00:00,
2013-04-05 04:05:00,42.5,16.8,29.94,WSW,246,0.0,3.0,35,0.00,,,0.00,0.00,VWS V14.01,2013-04-05 08:05:00,
2013-04-05 04:10:00,42.4,17.4,29.94,WSW,250,0.0,3.0,36,0.00,,,0.00,0.00,VWS V14.01,2013-04-05 08:10:00,
2013-04-05 04:15:00,42.5,18.1,29.95,WSW,250,0.0,3.0,37,0.00,,,0.00,0.00,VWS V14.01,2013-04-05 08:15:00,
2013-04-05 04:20:00,42.5,18.7,29.95,NW,314,0.0,4.5,38,0.00,,,0.00,0.00,VWS V14.01,2013-04-05 08:20:00,
2013-04-05 04:25:00,42.5,19.9,29.95,WSW,251,1.5,4.5,40,0.00,,,0.00,0.00,VWS V14.01,2013-04-05 08:25:00,
2013-04-05 04:30:00,42.4,22.6,29.96,North,10,4.5,4.5,45,0.00,,,0.00,0.00,VWS V14.01,2013-04-05 08:30:00,
2013-04-05 04:35:00,42.1,24.3,29.96,NE,40,1.5,4.5,49,0.00,,,0.00,0.00,VWS V14.01,2013-04-05 08:35:00,
2013-04-05 04:40:00,41.7,25.4,29.96,NNW,329,4.5,6.0,52,0.00,,,0.00,0.00,VWS V14.01,2013-04-05 08:40:00,
2013-04-05 04:45:00,41.3,25.5,29.96,NNW,340,3.0,6.0,53,0.00,,,0.00,0.00,VWS V14.01,2013-04-05 08:45:00,
2013-04-05 04:50:00,41.1,26.2,29.96,NNE,33,1.5,3.0,55,0.00,,,0.00,0.00,VWS V14.01,2013-04-05 08:50:00,
2013-04-05 04:55:00,40.8,26.8,29.96,NNE,20,1.5,6.0,57,0.00,,,0.00,0.00,VWS V14.01,2013-04-05 08:55:00,
2013-04-05 05:00:00,40.5,26.9,29.96,NNE,30,1.5,6.0,58,0.00,,,0.00,0.00,VWS V14.01,2013-04-05 09:00:00,
2013-04-05 05:05:00,40.2,27.4,29.96,North,354,1.5,6.0,60,0.00,,,0.00,0.00,VWS V14.01,2013-04-05 09:05:00,
2013-04-05 05:10:00,40.0,27.6,29.96,NNE,33,3.0,6.0,61,0.00,,,0.00,0.00,VWS V14.01,2013-04-05 09:10:00,
2013-04-05 05:15:00,39.9,28.0,29.96,NNE,29,1.5,6.0,62,0.00,,,0.00,0.00,VWS V14.01,2013-04-05 09:15:00,
2013-04-05 05:20:00,39.7,27.8,29.96,NNE,20,1.5,3.0,62,0.00,,,0.00,0.00,VWS V14.01,2013-04-05 09:20:00,
2013-04-05 05:25:00,39.7,27.8,29.96,NNE,18,1.5,3.0,62,0.00,,,0.00,0.00,VWS V14.01,2013-04-05 09:25:00,
2013-04-05 05:30:00,39.6,28.1,29.96,NE,37,1.5,3.0,63,0.00,,,0.00,0.00,VWS V14.01,2013-04-05 09:30:00,
2013-04-05 05:35:00,39.5,28.0,29.97,North,11,1.5,3.0,63,0.00,,,0.00,0.00,VWS V14.01,2013-04-05 09:35:00,
2013-04-05 05:40:00,39.5,28.4,29.97,NNE,31,1.5,4.5,64,0.00,,,0.00,0.00,VWS V14.01,2013-04-05 09:40:00,
2013-04-05 05:45:00,39.3,28.2,29.97,North,3,0.0,4.5,64,0.00,,,0.00,0.00,VWS V14.01,2013-04-05 09:45:00,
2013-04-05 05:50:00,39.2,28.4,29.97,NNE,32,1.5,6.0,65,0.00,,,0.00,0.00,VWS V14.01,2013-04-05 09:50:00,
2013-04-05 05:55:00,39.1,28.3,29.97,NNE,31,1.5,6.0,65,0.00,,,0.00,0.00,VWS V14.01,2013-04-05 09:55:00,
2013-04-05 06:00:00,39.0,28.6,29.98,NE,41,1.5,6.0,66,0.00,,,0.00,0.00,VWS V14.01,2013-04-05 10:00:00,
2013-04-05 06:05:00,38.8,28.4,29.98,NE,41,0.0,1.5,66,0.00,,,0.00,0.00,VWS V14.01,2013-04-05 10:05:00,
2013-04-05 06:10:00,38.7,28.3,29.98,NE,41,0.0,1.5,66,0.00,,,0.00,0.00,VWS V14.01,2013-04-05 10:10:00,
2013-04-05 06:15:00,38.7,28.7,29.98,NE,39,0.0,1.5,67,0.00,,,0.00,0.00,VWS V14.01,2013-04-05 10:15:00,
2013-04-05 06:20:00,38.7,28.7,29.98,NE,39,0.0,1.5,67,0.00,,,0.00,0.00,VWS V14.01,2013-04-05 10:20:00,
2013-04-05 06:25:00,38.7,28.7,29.98,NNE,27,1.5,3.0,67,0.00,,,0.00,0.00,VWS V14.01,2013-04-05 10:25:00,
2013-04-05 06:30:00,38.6,28.6,29.98,NNE,27,0.0,3.0,67,0.00,,,0.00,0.00,VWS V14.01,2013-04-05 10:30:00,
2013-04-05 06:35:00,38.6,28.6,29.98,NNW,333,1.5,1.5,67,0.00,,,0.00,0.00,VWS V14.01,2013-04-05 10:35:00,
2013-04-05 06:40:00,38.6,28.6,29.99,NNW,333,0.0,1.5,67,0.00,,,0.00,0.00,VWS V14.01,2013-04-05 10:40:00,
2013-04-05 06:45:00,38.5,28.5,29.99,NNW,333,0.0,1.5,67,0.00,,,0.00,0.00,VWS V14.01,2013-04-05 10:45:00,
2013-04-05 06:50:00,38.5,28.5,29.99,NNE,25,1.5,1.5,67,0.00,,,0.00,0.00,VWS V14.01,2013-04-05 10:50:00,
2013-04-05 06:55:00,38.6,28.6,30.00,NE,41,0.0,1.5,67,0.00,,,0.00,0.00,VWS V14.01,2013-04-05 10:55:00,
2013-04-05 07:00:00,38.6,28.6,30.00,NNE,30,3.0,4.5,67,0.00,,,0.00,0.00,VWS V14.01,2013-04-05 11:00:00,
2013-04-05 07:05:00,38.6,28.6,30.00,NE,37,4.5,4.5,67,0.00,,,0.00,0.00,VWS V14.01,2013-04-05 11:05:00,
2013-04-05 07:10:00,38.6,28.6,30.01,NNE,19,3.0,7.5,67,0.00,,,0.00,0.00,VWS V14.01,2013-04-05 11:10:00,
2013-04-05 07:15:00,38.5,28.9,30.01,NNE,27,1.5,7.5,68,0.00,,,0.00,0.00,VWS V14.01,2013-04-05 11:15:00,
2013-04-05 07:20:00,38.4,29.5,30.02,North,9,6.0,9.0,70,0.00,,,0.00,0.00,VWS V14.01,2013-04-05 11:20:00,
2013-04-05 07:25:00,38.3,29.4,30.02,NNE,31,4.5,9.0,70,0.00,,,0.00,0.00,VWS V14.01,2013-04-05 11:25:00,
2013-04-05 07:30:00,38.1,29.5,30.02,NE,39,3.0,10.5,71,0.00,,,0.00,0.00,VWS V14.01,2013-04-05 11:30:00,
2013-04-05 07:35:00,37.8,29.6,30.02,NE,35,7.5,9.0,72,0.00,,,0.00,0.00,VWS V14.01,2013-04-05 11:35:00,
2013-04-05 07:40:00,37.7,29.8,30.02,NNE,22,6.0,13.5,73,0.00,,,0.00,0.00,VWS V14.01,2013-04-05 11:40:00,
2013-04-05 07:45:00,37.4,30.2,30.02,NNE,17,6.0,13.5,75,0.00,,,0.00,0.00,VWS V14.01,2013-04-05 11:45:00,
2013-04-05 07:50:00,37.3,30.4,30.03,NE,34,0.0,6.0,76,0.00,,,0.00,0.00,VWS V14.01,2013-04-05 11:50:00,
2013-04-05 07:55:00,37.2,30.4,30.03,NE,34,1.5,6.0,76,0.00,,,0.00,0.00,VWS V14.01,2013-04-05 11:55:00,
2013-04-05 08:00:00,37.2,30.7,30.03,NNE,30,1.5,6.0,77,0.00,,,0.00,0.00,VWS V14.01,2013-04-05 12:00:00,
2013-04-05 08:05:00,37.3,31.1,30.03,NNE,21,4.5,6.0,78,0.00,,,0.00,0.00,VWS V14.01,2013-04-05 12:05:00,
2013-04-05 08:10:00,37.2,31.3,30.04,NNE,23,1.5,9.0,79,0.00,,,0.00,0.00,VWS V14.01,2013-04-05 12:10:00,
2013-04-05 08:15:00,37.3,31.4,30.04,ENE,75,3.0,9.0,79,0.00,,,0.00,0.00,VWS V14.01,2013-04-05 12:15:00,
2013-04-05 08:20:00,37.5,31.9,30.05,NNE,24,6.0,6.0,80,0.00,,,0.00,0.00,VWS V14.01,2013-04-05 12:20:00,
2013-04-05 08:25:00,37.5,31.9,30.05,NE,39,6.0,13.5,80,0.00,,,0.00,0.00,VWS V14.01,2013-04-05 12:25:00,
2013-04-05 08:30:00,37.5,31.9,30.05,NNE,32,4.5,13.5,80,0.00,,,0.00,0.00,VWS V14.01,2013-04-05 12:30:00,
2013-04-05 08:35:00,37.6,32.3,30.05,North,1,3.0,6.0,81,0.00,,,0.00,0.00,VWS V14.01,2013-04-05 12:35:00,
2013-04-05 08:40:00,37.7,32.4,30.05,NNE,18,4.5,9.0,81,0.00,,,0.00,0.00,VWS V14.01,2013-04-05 12:40:00,
2013-04-05 08:45:00,37.7,32.1,30.05,NNE,30,6.0,9.0,80,0.00,,,0.00,0.00,VWS V14.01,2013-04-05 12:45:00,
2013-04-05 08:50:00,37.7,32.4,30.05,NNE,21,3.0,9.0,81,0.00,,,0.00,0.00,VWS V14.01,2013-04-05 12:50:00,
2013-04-05 08:55:00,37.8,32.2,30.06,North,1,4.5,9.0,80,0.00,,,0.00,0.00,VWS V14.01,2013-04-05 12:55:00,
2013-04-05 09:00:00,37.7,32.1,30.06,NNE,32,1.5,9.0,80,0.00,,,0.00,0.00,VWS V14.01,2013-04-05 13:00:00,
2013-04-05 09:05:00,38.0,32.1,30.06,North,6,9.0,9.0,79,0.00,,,0.00,0.00,VWS V14.01,2013-04-05 13:05:00,
2013-04-05 09:10:00,38.0,31.8,30.06,NNE,22,7.5,13.5,78,0.00,,,0.00,0.00,VWS V14.01,2013-04-05 13:10:00,
2013-04-05 09:15:00,38.2,31.6,30.06,NNE,33,6.0,13.5,77,0.00,,,0.00,0.00,VWS V14.01,2013-04-05 13:15:00,
2013-04-05 09:20:00,38.5,31.9,30.06,NNW,333,4.5,9.0,77,0.00,,,0.00,0.00,VWS V14.01,2013-04-05 13:20:00,
2013-04-05 09:25:00,38.5,31.3,30.07,NNE,30,7.5,9.0,75,0.00,,,0.00,0.00,VWS V14.01,2013-04-05 13:25:00,
2013-04-05 09:30:00,38.6,31.4,30.07,NNE,23,9.0,10.5,75,0.00,,,0.00,0.00,VWS V14.01,2013-04-05 13:30:00,
2013-04-05 09:35:00,38.6,31.7,30.07,NNW,337,1.5,13.5,76,0.00,,,0.00,0.00,VWS V14.01,2013-04-05 13:35:00,
2013-04-05 09:40:00,38.6,31.0,30.07,NNE,18,7.5,15.0,74,0.00,,,0.00,0.00,VWS V14.01,2013-04-05 13:40:00,
2013-04-05 09:45:00,38.6,31.4,30.07,NNE,31,9.0,15.0,75,0.00,,,0.00,0.00,VWS V14.01,2013-04-05 13:45:00,
2013-04-05 09:50:00,38.8,31.2,30.07,NNE,20,9.0,13.5,74,0.00,,,0.00,0.00,VWS V14.01,2013-04-05 13:50:00,
2013-04-05 09:55:00,38.9,31.0,30.07,North,357,6.0,13.5,73,0.00,,,0.00,0.00,VWS V14.01,2013-04-05 13:55:00,
2013-04-05 10:00:00,38.9,30.7,30.07,NNE,27,7.5,13.5,72,0.00,,,0.00,0.00,VWS V14.01,2013-04-05 14:00:00,
2013-04-05 10:05:00,39.0,31.4,30.07,NNW,329,4.5,10.5,74,0.00,,,0.00,0.00,VWS V14.01,2013-04-05 14:05:00,
2013-04-05 10:10:00,39.1,30.9,30.07,NNE,28,10.5,15.0,72,0.00,,,0.00,0.00,VWS V14.01,2013-04-05 14:10:00,
2013-04-05 10:15:00,39.1,30.9,30.08,North,354,6.0,15.0,72,0.00,,,0.00,0.00,VWS V14.01,2013-04-05 14:15:00,
2013-04-05 10:20:00,39.2,31.3,30.07,NE,39,3.0,9.0,73,0.00,,,0.00,0.00,VWS V14.01,2013-04-05 14:20:00,
2013-04-05 10:25:00,39.2,31.0,30.08,North,10,13.5,13.5,72,0.00,,,0.00,0.00,VWS V14.01,2013-04-05 14:25:00,
2013-04-05 10:30:00,38.9,31.0,30.08,NNE,32,6.0,16.5,73,0.00,,,0.00,0.00,VWS V14.01,2013-04-05 14:30:00,
2013-04-05 10:35:00,39.1,30.5,30.08,NNE,23,9.0,12.0,71,0.00,,,0.00,0.00,VWS V14.01,2013-04-05 14:35:00,
2013-04-05 10:40:00,39.3,30.7,30.08,North,8,9.0,13.5,71,0.00,,,0.00,0.00,VWS V14.01,2013-04-05 14:40:00,
2013-04-05 10:45:00,39.1,30.2,30.08,NE,41,7.5,16.5,70,0.00,,,0.00,0.00,VWS V14.01,2013-04-05 14:45:00,
2013-04-05 10:50:00,39.6,29.6,30.09,North,6,7.5,13.5,67,0.00,,,0.00,0.00,VWS V14.01,2013-04-05 14:50:00,
2013-04-05 10:55:00,39.6,31.3,30.09,NW,320,3.0,13.5,72,0.00,,,0.00,0.00,VWS V14.01,2013-04-05 14:55:00,
2013-04-05 11:00:00,39.9,31.6,30.09,NNE,20,3.0,13.5,72,0.00,,,0.00,0.00,VWS V14.01,2013-04-05 15:00:00,
2013-04-05 11:05:00,40.2,32.6,30.09,NNW,344,1.5,10.5,74,0.00,,,0.00,0.00,VWS V14.01,2013-04-05 15:05:00,
2013-04-05 11:10:00,40.6,31.6,30.09,NE,37,6.0,10.5,70,0.00,,,0.00,0.00,VWS V14.01,2013-04-05 15:10:00,
2013-04-05 11:15:00,40.2,31.6,30.09,NNW,333,3.0,10.5,71,0.00,,,0.00,0.00,VWS V14.01,2013-04-05 15:15:00,
2013-04-05 11:20:00,40.3,31.0,30.10,NE,36,7.5,15.0,69,0.00,,,0.00,0.00,VWS V14.01,2013-04-05 15:20:00,
2013-04-05 11:25:00,40.0,29.6,30.09,NNW,340,1.5,15.0,66,0.00,,,0.00,0.00,VWS V14.01,2013-04-05 15:25:00,
2013-04-05 11:30:00,39.6,26.5,30.10,NE,56,9.0,15.0,59,0.00,,,0.00,0.00,VWS V14.01,2013-04-05 15:30:00,
2013-04-05 11:35:00,39.9,26.8,30.09,NE,37,9.0,10.5,59,0.00,,,0.00,0.00,VWS V14.01,2013-04-05 15:35:00,
2013-04-05 11:40:00,39.8,25.4,30.10,NNE,16,7.5,15.0,56,0.00,,,0.00,0.00,VWS V14.01,2013-04-05 15:40:00,
2013-04-05 11:45:00,40.0,25.6,30.10,NNW,338,1.5,15.0,56,0.00,,,0.00,0.00,VWS V14.01,2013-04-05 15:45:00,
2013-04-05 11:50:00,40.5,26.0,30.10,NE,51,6.0,10.5,56,0.00,,,0.00,0.00,VWS V14.01,2013-04-05 15:50:00,
2013-04-05 11:55:00,40.5,26.0,30.10,NNE,25,7.5,12.0,56,0.00,,,0.00,0.00,VWS V14.01,2013-04-05 15:55:00,
2013-04-05 12:00:00,40.3,26.7,30.10,NE,41,10.5,13.5,58,0.00,,,0.00,0.00,VWS V14.01,2013-04-05 16:00:00,
2013-04-05 12:05:00,39.8,26.7,30.10,North,1,9.0,16.5,59,0.00,,,0.00,0.00,VWS V14.01,2013-04-05 16:05:00,
2013-04-05 12:10:00,39.7,28.1,30.10,West,264,6.0,16.5,63,0.00,,,0.00,0.00,VWS V14.01,2013-04-05 16:10:00,
2013-04-05 12:15:00,39.7,27.4,30.10,NNE,30,4.5,16.5,61,0.00,,,0.00,0.00,VWS V14.01,2013-04-05 16:15:00,
2013-04-05 12:20:00,40.0,28.0,30.10,North,6,1.5,13.5,62,0.00,,,0.00,0.00,VWS V14.01,2013-04-05 16:20:00,
2013-04-05 12:29:00,39.7,25.7,30.10,NNE,32,7.5,7.5,57,0.00,,,0.00,0.00,VWS V14.01,2013-04-05 16:29:00,
2013-04-05 12:30:00,39.6,26.5,30.10,NNE,20,3.0,15.0,59,0.00,,,0.00,0.00,VWS V14.01,2013-04-05 16:30:00,
2013-04-05 12:34:00,39.8,27.5,30.11,North,355,7.5,12.0,61,0.00,,,0.00,0.00,VWS V14.01,2013-04-05 16:34:00,
2013-04-05 12:39:00,40.0,27.6,30.11,NNE,23,3.0,12.0,61,0.00,,,0.00,0.00,VWS V14.01,2013-04-05 16:39:00,
2013-04-05 12:44:00,40.3,28.3,30.11,North,10,7.5,13.5,62,0.00,,,0.00,0.00,VWS V14.01,2013-04-05 16:44:00,
2013-04-05 12:45:00,40.1,26.1,30.10,North,350,6.0,15.0,57,0.00,,,0.00,0.00,VWS V14.01,2013-04-05 16:45:00,
2013-04-05 12:49:00,40.7,28.3,30.11,North,351,4.5,10.5,61,0.00,,,0.00,0.00,VWS V14.01,2013-04-05 16:49:00,
2013-04-05 12:54:00,40.6,27.8,30.11,NNE,28,10.5,12.0,60,0.00,,,0.00,0.00,VWS V14.01,2013-04-05 16:54:00,
2013-04-05 12:59:00,40.6,28.6,30.11,WNW,286,4.5,13.5,62,0.00,,,0.00,0.00,VWS V14.01,2013-04-05 16:59:00,
2013-04-05 13:00:00,40.3,26.7,30.10,NNE,30,6.0,13.5,58,0.00,,,0.00,0.00,VWS V14.01,2013-04-05 17:00:00,
2013-04-05 13:04:00,40.5,27.7,30.11,NW,311,4.5,12.0,60,0.00,,,0.00,0.00,VWS V14.01,2013-04-05 17:04:00,
2013-04-05 13:09:00,40.6,28.6,30.11,NNE,27,3.0,12.0,62,0.00,,,0.00,0.00,VWS V14.01,2013-04-05 17:09:00,
2013-04-05 13:14:00,40.3,28.3,30.11,NE,41,4.5,16.5,62,0.00,,,0.00,0.00,VWS V14.01,2013-04-05 17:14:00,
2013-04-05 13:15:00,39.8,27.9,30.10,NE,49,1.5,16.5,62,0.00,,,0.00,0.00,VWS V14.01,2013-04-05 17:15:00,
2013-04-05 13:19:00,40.2,28.2,30.11,NNE,29,3.0,12.0,62,0.00,,,0.00,0.00,VWS V14.01,2013-04-05 17:19:00,
2013-04-05 13:24:00,40.4,27.6,30.11,NE,43,10.5,16.5,60,0.00,,,0.00,0.00,VWS V14.01,2013-04-05 17:24:00,
2013-04-05 13:30:00,40.2,26.2,30.11,NNE,15,1.5,16.5,57,0.00,,,0.00,0.00,VWS V14.01,2013-04-05 17:30:00,
2013-04-05 13:35:00,40.4,27.6,30.11,NNE,32,1.5,12.0,60,0.00,,,0.00,0.00,VWS V14.01,2013-04-05 17:35:00,
2013-04-05 13:40:00,40.6,26.1,30.11,NNE,29,6.0,15.0,56,0.00,,,0.00,0.00,VWS V14.01,2013-04-05 17:40:00,
2013-04-05 13:45:00,40.8,26.8,30.11,NE,34,7.5,15.0,57,0.00,,,0.00,0.00,VWS V14.01,2013-04-05 17:45:00,
2013-04-05 13:50:00,41.2,26.7,30.11,NNW,343,3.0,9.0,56,0.00,,,0.00,0.00,VWS V14.01,2013-04-05 17:50:00,
2013-04-05 13:55:00,41.0,26.5,30.11,WSW,250,4.5,9.0,56,0.00,,,0.00,0.00,VWS V14.01,2013-04-05 17:55:00,
2013-04-05 14:00:00,41.5,27.8,30.11,WSW,250,1.5,10.5,58,0.00,,,0.00,0.00,VWS V14.01,2013-04-05 18:00:00,
2013-04-05 14:05:00,41.5,27.4,30.11,WSW,253,3.0,13.5,57,0.00,,,0.00,0.00,VWS V14.01,2013-04-05 18:05:00,
2013-04-05 14:10:00,41.4,26.9,30.11,NNE,21,15.0,15.0,56,0.00,,,0.00,0.00,VWS V14.01,2013-04-05 18:10:00,
2013-04-05 14:15:00,41.4,26.9,30.11,NNW,338,1.5,15.0,56,0.00,,,0.00,0.00,VWS V14.01,2013-04-05 18:15:00,
2013-04-05 14:20:00,41.6,27.1,30.11,WNW,297,3.0,9.0,56,0.00,,,0.00,0.00,VWS V14.01,2013-04-05 18:20:00,
2013-04-05 14:25:00,41.4,27.8,30.11,West,271,1.5,9.0,58,0.00,,,0.00,0.00,VWS V14.01,2013-04-05 18:25:00,
2013-04-05 14:30:00,41.9,28.6,30.11,NW,319,3.0,12.0,59,0.00,,,0.00,0.00,VWS V14.01,2013-04-05 18:30:00,
2013-04-05 14:35:00,42.3,27.3,30.11,NNE,18,19.5,21.0,55,0.00,,,0.00,0.00,VWS V14.01,2013-04-05 18:35:00,
2013-04-05 14:40:00,41.7,28.0,30.11,NE,49,1.5,21.0,58,0.00,,,0.00,0.00,VWS V14.01,2013-04-05 18:40:00,
2013-04-05 14:45:00,41.5,27.4,30.11,NW,307,6.0,21.0,57,0.00,,,0.00,0.00,VWS V14.01,2013-04-05 18:45:00,
2013-04-05 14:50:00,41.1,27.9,30.11,NE,44,6.0,13.5,59,0.00,,,0.00,0.00,VWS V14.01,2013-04-05 18:50:00,
2013-04-05 14:55:00,41.2,27.1,30.11,NE,34,6.0,13.5,57,0.00,,,0.00,0.00,VWS V14.01,2013-04-05 18:55:00,
2013-04-05 15:00:00,41.0,25.6,30.11,WNW,293,3.0,16.5,54,0.00,,,0.00,0.00,VWS V14.01,2013-04-05 19:00:00,
2013-04-05 15:05:00,41.1,26.6,30.11,NE,41,6.0,18.0,56,0.00,,,0.00,0.00,VWS V14.01,2013-04-05 19:05:00,
2013-04-05 15:10:00,41.3,26.4,30.11,WNW,291,1.5,18.0,55,0.00,,,0.00,0.00,VWS V14.01,2013-04-05 19:10:00,
2013-04-05 15:15:00,41.3,25.9,30.11,North,6,7.5,18.0,54,0.00,,,0.00,0.00,VWS V14.01,2013-04-05 19:15:00,
2013-04-05 15:20:00,41.4,26.9,30.12,North,2,7.5,13.5,56,0.00,,,0.00,0.00,VWS V14.01,2013-04-05 19:20:00,
2013-04-05 15:25:00,41.0,26.1,30.11,North,352,1.5,13.5,55,0.00,,,0.00,0.00,VWS V14.01,2013-04-05 19:25:00,
2013-04-05 15:30:00,41.2,26.7,30.11,NE,49,7.5,13.5,56,0.00,,,0.00,0.00,VWS V14.01,2013-04-05 19:30:00,
2013-04-05 15:35:00,40.8,26.3,30.11,NNW,346,0.0,13.5,56,0.00,,,0.00,0.00,VWS V14.01,2013-04-05 19:35:00,
2013-04-05 15:40:00,41.1,25.7,30.11,WNW,285,1.5,13.5,54,0.00,,,0.00,0.00,VWS V14.01,2013-04-05 19:40:00,
2013-04-05 15:45:00,41.2,26.7,30.11,NE,53,4.5,13.5,56,0.00,,,0.00,0.00,VWS V14.01,2013-04-05 19:45:00,
2013-04-05 15:50:00,41.7,26.3,30.12,NNE,21,10.5,12.0,54,0.00,,,0.00,0.00,VWS V14.01,2013-04-05 19:50:00,
2013-04-05 15:55:00,41.2,25.4,30.11,West,260,1.5,13.5,53,0.00,,,0.00,0.00,VWS V14.01,2013-04-05 19:55:00,
2013-04-05 16:00:00,41.0,26.5,30.11,NNE,23,10.5,18.0,56,0.00,,,0.00,0.00,VWS V14.01,2013-04-05 20:00:00,
2013-04-05 16:05:00,41.1,26.2,30.11,NNE,30,4.5,9.0,55,0.00,,,0.00,0.00,VWS V14.01,2013-04-05 20:05:00,
2013-04-05 16:10:00,41.6,26.6,30.11,WNW,288,4.5,9.0,55,0.00,,,0.00,0.00,VWS V14.01,2013-04-05 20:10:00,
2013-04-05 16:15:00,41.3,25.0,30.11,NNE,25,6.0,13.5,52,0.00,,,0.00,0.00,VWS V14.01,2013-04-05 20:15:00,
2013-04-05 16:20:00,40.9,24.6,30.11,West,276,0.0,15.0,52,0.00,,,0.00,0.00,VWS V14.01,2013-04-05 20:20:00,
2013-04-05 16:25:00,40.9,25.5,30.11,NNE,29,9.0,15.0,54,0.00,,,0.00,0.00,VWS V14.01,2013-04-05 20:25:00,
2013-04-05 16:30:00,40.8,24.5,30.11,NE,50,4.5,15.0,52,0.00,,,0.00,0.00,VWS V14.01,2013-04-05 20:30:00,
2013-04-05 16:35:00,40.8,25.5,30.12,NE,48,4.5,10.5,54,0.00,,,0.00,0.00,VWS V14.01,2013-04-05 20:35:00,
2013-04-05 16:40:00,40.8,24.5,30.11,NE,53,3.0,15.0,52,0.00,,,0.00,0.00,VWS V14.01,2013-04-05 20:40:00,
2013-04-05 16:45:00,40.6,25.3,30.11,NNW,327,3.0,15.0,54,0.00,,,0.00,0.00,VWS V14.01,2013-04-05 20:45:00,
2013-04-05 16:50:00,40.8,24.5,30.11,West,281,3.0,12.0,52,0.00,,,0.00,0.00,VWS V14.01,2013-04-05 20:50:00,
2013-04-05 16:55:00,40.8,26.3,30.11,North,4,4.5,12.0,56,0.00,,,0.00,0.00,VWS V14.01,2013-04-05 20:55:00,
2013-04-05 17:00:00,41.0,25.6,30.11,WNW,286,0.0,15.0,54,0.00,,,0.00,0.00,VWS V14.01,2013-04-05 21:00:00,
2013-04-05 17:05:00,41.0,24.7,30.12,NE,42,4.5,13.5,52,0.00,,,0.00,0.00,VWS V14.01,2013-04-05 21:05:00,
2013-04-05 17:10:00,40.6,25.3,30.12,North,1,7.5,13.5,54,0.00,,,0.00,0.00,VWS V14.01,2013-04-05 21:10:00,
2013-04-05 17:15:00,40.3,25.4,30.12,NW,321,3.0,13.5,55,0.00,,,0.00,0.00,VWS V14.01,2013-04-05 21:15:00,
2013-04-05 17:20:00,40.3,25.4,30.12,North,350,7.5,13.5,55,0.00,,,0.00,0.00,VWS V14.01,2013-04-05 21:20:00,
2013-04-05 17:25:00,40.0,26.0,30.12,NNE,33,7.5,13.5,57,0.00,,,0.00,0.00,VWS V14.01,2013-04-05 21:25:00,
2013-04-05 17:30:00,40.0,25.6,30.12,NNE,27,6.0,15.0,56,0.00,,,0.00,0.00,VWS V14.01,2013-04-05 21:30:00,
2013-04-05 17:35:00,39.9,24.2,30.13,NNE,31,3.0,13.5,53,0.00,,,0.00,0.00,VWS V14.01,2013-04-05 21:35:00,
2013-04-05 17:40:00,39.7,24.9,30.13,North,355,4.5,13.5,55,0.00,,,0.00,0.00,VWS V14.01,2013-04-05 21:40:00,
2013-04-05 17:45:00,40.0,25.1,30.13,NE,41,9.0,13.5,55,0.00,,,0.00,0.00,VWS V14.01,2013-04-05 21:45:00,
2013-04-05 17:50:00,39.7,25.3,30.13,NE,41,6.0,12.0,56,0.00,,,0.00,0.00,VWS V14.01,2013-04-05 21:50:00,
2013-04-05 17:55:00,39.9,25.1,30.13,NE,34,7.5,12.0,55,0.00,,,0.00,0.00,VWS V14.01,2013-04-05 21:55:00,
2013-04-05 18:00:00,39.8,24.5,30.14,NE,39,7.5,13.5,54,0.00,,,0.00,0.00,VWS V14.01,2013-04-05 22:00:00,
2013-04-05 18:05:00,39.6,24.3,30.13,North,350,1.5,13.5,54,0.00,,,0.00,0.00,VWS V14.01,2013-04-05 22:05:00,
2013-04-05 18:10:00,39.6,24.3,30.14,NE,37,6.0,13.5,54,0.00,,,0.00,0.00,VWS V14.01,2013-04-05 22:10:00,
2013-04-05 18:15:00,39.3,23.6,30.14,NNE,25,9.0,13.5,53,0.00,,,0.00,0.00,VWS V14.01,2013-04-05 22:15:00,
2013-04-05 18:20:00,38.9,23.7,30.14,NNE,29,6.0,12.0,54,0.00,,,0.00,0.00,VWS V14.01,2013-04-05 22:20:00,
2013-04-05 18:25:00,38.9,24.1,30.14,NNE,25,7.5,12.0,55,0.00,,,0.00,0.00,VWS V14.01,2013-04-05 22:25:00,
2013-04-05 18:30:00,39.1,24.3,30.14,NNE,28,7.5,15.0,55,0.00,,,0.00,0.00,VWS V14.01,2013-04-05 22:30:00,
2013-04-05 18:35:00,39.0,23.3,30.14,NNE,18,12.0,15.0,53,0.00,,,0.00,0.00,VWS V14.01,2013-04-05 22:35:00,
2013-04-05 18:40:00,38.9,23.7,30.15,NE,37,9.0,15.0,54,0.00,,,0.00,0.00,VWS V14.01,2013-04-05 22:40:00,
2013-04-05 18:45:00,38.6,23.4,30.15,North,11,9.0,15.0,54,0.00,,,0.00,0.00,VWS V14.01,2013-04-05 22:45:00,
2013-04-05 18:50:00,38.6,23.8,30.15,NE,43,6.0,12.0,55,0.00,,,0.00,0.00,VWS V14.01,2013-04-05 22:50:00,
2013-04-05 18:55:00,38.3,23.6,30.15,NE,48,4.5,15.0,55,0.00,,,0.00,0.00,VWS V14.01,2013-04-05 22:55:00,
2013-04-05 19:00:00,38.1,23.8,30.16,NNE,23,10.5,16.5,56,0.00,,,0.00,0.00,VWS V14.01,2013-04-05 23:00:00,
2013-04-05 19:05:00,37.9,23.6,30.16,NE,36,12.0,12.0,56,0.00,,,0.00,0.00,VWS V14.01,2013-04-05 23:05:00,
2013-04-05 19:10:00,37.5,24.1,30.16,NE,40,7.5,12.0,58,0.00,,,0.00,0.00,VWS V14.01,2013-04-05 23:10:00,
2013-04-05 19:15:00,37.2,24.6,30.16,NE,35,3.0,16.5,60,0.00,,,0.00,0.00,VWS V14.01,2013-04-05 23:15:00,
2013-04-05 19:20:00,37.1,24.5,30.16,NE,36,7.5,13.5,60,0.00,,,0.00,0.00,VWS V14.01,2013-04-05 23:20:00,
2013-04-05 19:25:00,36.9,24.7,30.16,NE,51,4.5,13.5,61,0.00,,,0.00,0.00,VWS V14.01,2013-04-05 23:25:00,
2013-04-05 19:30:00,36.6,24.4,30.17,North,3,6.0,13.5,61,0.00,,,0.00,0.00,VWS V14.01,2013-04-05 23:30:00,
2013-04-05 19:35:00,36.5,24.3,30.17,NNE,27,3.0,10.5,61,0.00,,,0.00,0.00,VWS V14.01,2013-04-05 23:35:00,
2013-04-05 19:40:00,36.3,24.5,30.17,NNE,29,7.5,10.5,62,0.00,,,0.00,0.00,VWS V14.01,2013-04-05 23:40:00,
2013-04-05 19:45:00,36.0,24.6,30.17,NNE,30,7.5,12.0,63,0.00,,,0.00,0.00,VWS V14.01,2013-04-05 23:45:00,
2013-04-05 19:50:00,35.9,24.9,30.17,NE,34,6.0,9.0,64,0.00,,,0.00,0.00,VWS V14.01,2013-04-05 23:50:00,
2013-04-05 19:55:00,35.6,24.3,30.17,NNE,23,4.5,13.5,63,0.00,,,0.00,0.00,VWS V14.01,2013-04-05 23:55:00,
2013-04-05 20:00:00,35.5,24.5,30.17,NE,38,1.5,13.5,64,0.00,,,0.00,0.00,VWS V14.01,2013-04-06 00:00:00,
2013-04-05 20:05:00,35.3,23.6,30.17,NE,43,4.5,12.0,62,0.00,,,0.00,0.00,VWS V14.01,2013-04-06 00:05:00,
2013-04-05 20:10:00,35.2,23.1,30.18,NNW,340,1.5,12.0,61,0.00,,,0.00,0.00,VWS V14.01,2013-04-06 00:10:00,
2013-04-05 20:15:00,35.1,22.6,30.17,NNW,344,4.5,12.0,60,0.00,,,0.00,0.00,VWS V14.01,2013-04-06 00:15:00,
2013-04-05 20:20:00,35.1,22.2,30.18,NNE,29,4.5,9.0,59,0.00,,,0.00,0.00,VWS V14.01,2013-04-06 00:20:00,
2013-04-05 20:25:00,35.0,22.1,30.18,NNW,345,4.5,10.5,59,0.00,,,0.00,0.00,VWS V14.01,2013-04-06 00:25:00,
2013-04-05 20:30:00,34.9,21.6,30.18,NE,37,6.0,10.5,58,0.00,,,0.00,0.00,VWS V14.01,2013-04-06 00:30:00,
2013-04-05 20:35:00,34.8,22.0,30.18,North,3,7.5,7.5,59,0.00,,,0.00,0.00,VWS V14.01,2013-04-06 00:35:00,
2013-04-05 20:40:00,34.6,21.8,30.18,NNE,32,1.5,7.5,59,0.00,,,0.00,0.00,VWS V14.01,2013-04-06 00:40:00,
2013-04-05 20:45:00,34.5,21.3,30.19,NW,321,1.5,7.5,58,0.00,,,0.00,0.00,VWS V14.01,2013-04-06 00:45:00,
2013-04-05 20:50:00,34.5,21.3,30.19,NNE,26,4.5,7.5,58,0.00,,,0.00,0.00,VWS V14.01,2013-04-06 00:50:00,
2013-04-05 20:55:00,34.5,21.3,30.19,ENE,63,7.5,7.5,58,0.00,,,0.00,0.00,VWS V14.01,2013-04-06 00:55:00,
2013-04-05 21:00:00,34.4,21.2,30.19,NNE,23,10.5,10.5,58,0.00,,,0.00,0.00,VWS V14.01,2013-04-06 01:00:00,
2013-04-05 21:05:00,34.3,21.1,30.19,NNW,332,1.5,7.5,58,0.00,,,0.00,0.00,VWS V14.01,2013-04-06 01:05:00,
2013-04-05 21:10:00,34.1,20.9,30.20,North,5,1.5,7.5,58,0.00,,,0.00,0.00,VWS V14.01,2013-04-06 01:10:00,
2013-04-05 21:15:00,34.1,20.9,30.20,NNE,28,3.0,12.0,58,0.00,,,0.00,0.00,VWS V14.01,2013-04-06 01:15:00,
2013-04-05 21:20:00,34.0,20.4,30.20,North,6,1.5,7.5,57,0.00,,,0.00,0.00,VWS V14.01,2013-04-06 01:20:00,
2013-04-05 21:25:00,33.9,20.7,30.21,NNE,30,1.5,7.5,58,0.00,,,0.00,0.00,VWS V14.01,2013-04-06 01:25:00,
2013-04-05 21:30:00,33.8,19.8,30.21,NE,38,4.5,7.5,56,0.00,,,0.00,0.00,VWS V14.01,2013-04-06 01:30:00,
2013-04-05 21:35:00,33.7,19.7,30.21,NNE,33,6.0,6.0,56,0.00,,,0.00,0.00,VWS V14.01,2013-04-06 01:35:00,
2013-04-05 21:40:00,33.7,19.7,30.21,East,79,4.5,7.5,56,0.00,,,0.00,0.00,VWS V14.01,2013-04-06 01:40:00,
2013-04-05 21:45:00,33.6,18.7,30.21,NE,40,4.5,7.5,54,0.00,,,0.00,0.00,VWS V14.01,2013-04-06 01:45:00,
2013-04-05 21:50:00,33.6,18.7,30.22,North,11,3.0,6.0,54,0.00,,,0.00,0.00,VWS V14.01,2013-04-06 01:50:00,
2013-04-05 21:55:00,33.5,18.2,30.22,NE,43,1.5,7.5,53,0.00,,,0.00,0.00,VWS V14.01,2013-04-06 01:55:00,
2013-04-05 22:00:00,33.5,17.8,30.22,NNE,32,4.5,7.5,52,0.00,,,0.00,0.00,VWS V14.01,2013-04-06 02:00:00,
2013-04-05 22:05:00,33.3,17.6,30.22,NNW,333,1.5,7.5,52,0.00,,,0.00,0.00,VWS V14.01,2013-04-06 02:05:00,
2013-04-05 22:10:00,33.2,17.5,30.22,NE,35,1.5,7.5,52,0.00,,,0.00,0.00,VWS V14.01,2013-04-06 02:10:00,
2013-04-05 22:15:00,33.1,17.0,30.22,NE,44,4.5,7.5,51,0.00,,,0.00,0.00,VWS V14.01,2013-04-06 02:15:00,
2013-04-05 22:20:00,33.0,16.9,30.22,NE,51,1.5,6.0,51,0.00,,,0.00,0.00,VWS V14.01,2013-04-06 02:20:00,
2013-04-05 22:25:00,32.9,16.8,30.22,NE,35,1.5,6.0,51,0.00,,,0.00,0.00,VWS V14.01,2013-04-06 02:25:00,
2013-04-05 22:30:00,32.7,16.6,30.22,NE,44,1.5,6.0,51,0.00,,,0.00,0.00,VWS V14.01,2013-04-06 02:30:00,
2013-04-05 22:35:00,32.6,16.0,30.22,ENE,75,0.0,3.0,50,0.00,,,0.00,0.00,VWS V14.01,2013-04-06 02:35:00,
2013-04-05 22:40:00,32.5,16.4,30.22,ENE,74,1.5,4.5,51,0.00,,,0.00,0.00,VWS V14.01,2013-04-06 02:40:00,
2013-04-05 22:45:00,32.4,16.3,30.22,ENE,77,1.5,6.0,51,0.00,,,0.00,0.00,VWS V14.01,2013-04-06 02:45:00,
2013-04-05 22:50:00,32.3,16.2,30.22,East,85,0.0,3.0,51,0.00,,,0.00,0.00,VWS V14.01,2013-04-06 02:50:00,
2013-04-05 22:55:00,32.1,16.0,30.22,East,84,0.0,3.0,51,0.00,,,0.00,0.00,VWS V14.01,2013-04-06 02:55:00,
2013-04-05 23:00:00,31.8,16.2,30.22,East,87,0.0,3.0,52,0.00,,,0.00,0.00,VWS V14.01,2013-04-06 03:00:00,
2013-04-05 23:05:00,31.6,16.0,30.22,East,87,0.0,1.5,52,0.00,,,0.00,0.00,VWS V14.01,2013-04-06 03:05:00,
2013-04-05 23:10:00,31.3,15.7,30.22,East,88,0.0,1.5,52,0.00,,,0.00,0.00,VWS V14.01,2013-04-06 03:10:00,
2013-04-05 23:15:00,31.0,15.4,30.22,East,88,0.0,1.5,52,0.00,,,0.00,0.00,VWS V14.01,2013-04-06 03:15:00,
2013-04-05 23:21:00,30.9,15.8,30.22,East,91,0.0,1.5,53,0.00,,,0.00,0.00,VWS V14.01,2013-04-06 03:21:00,
2013-04-05 23:26:00,30.8,15.7,30.22,East,91,0.0,1.5,53,0.00,,,0.00,0.00,VWS V14.01,2013-04-06 03:26:00,
2013-04-05 23:30:00,32.7,16.1,30.22,NE,44,0.0,6.0,50,0.00,,,0.00,0.00,VWS V14.01,2013-04-06 03:30:00,
2013-04-05 23:31:00,30.7,15.6,30.22,SE,137,1.5,1.5,53,0.00,,,0.00,0.00,VWS V14.01,2013-04-06 03:31:00,
2013-04-05 23:36:00,30.6,15.9,30.22,SE,131,1.5,1.5,54,0.00,,,0.00,0.00,VWS V14.01,2013-04-06 03:36:00,
2013-04-05 23:41:00,30.4,15.8,30.22,SE,134,0.0,1.5,54,0.00,,,0.00,0.00,VWS V14.01,2013-04-06 03:41:00,
2013-04-05 23:45:00,32.4,16.3,30.22,ENE,78,0.0,6.0,51,0.00,,,0.00,0.00,VWS V14.01,2013-04-06 03:45:00,
2013-04-05 23:46:00,30.2,16.0,30.22,SE,129,0.0,1.5,55,0.00,,,0.00,0.00,VWS V14.01,2013-04-06 03:46:00,
2013-04-05 23:51:00,30.2,16.0,30.21,SSE,150,0.0,1.5,55,0.00,,,0.00,0.00,VWS V14.01,2013-04-06 03:51:00,
2013-04-05 23:56:00,30.2,15.6,30.21,SE,131,0.0,1.5,54,0.00,,,0.00,0.00,VWS V14.01,2013-04-06 03:56:00,